createdAt,value
2018-02-25T00:00:52.704Z,992.4
2018-02-25T00:01:55.144Z,992.4
2018-02-25T00:02:57.623Z,992.2
2018-02-25T00:04:00.127Z,992.3
2018-02-25T00:05:02.666Z,992.3
2018-02-25T00:06:05.086Z,992.3
2018-02-25T00:07:07.504Z,992.3
2018-02-25T00:08:09.970Z,992.3
2018-02-25T00:09:12.442Z,992.3
2018-02-25T00:10:14.879Z,992.2
2018-02-25T00:11:17.307Z,992
2018-02-25T00:12:22.178Z,992.3
2018-02-25T00:13:24.671Z,992.3
2018-02-25T00:14:27.066Z,992.3
2018-02-25T00:15:29.501Z,992.3
2018-02-25T00:16:31.966Z,992.3
2018-02-25T00:17:34.444Z,992.2
2018-02-25T00:18:36.929Z,992.2
2018-02-25T00:19:39.331Z,992.3
2018-02-25T00:20:41.804Z,992.3
2018-02-25T00:21:44.269Z,992.3
2018-02-25T00:22:46.703Z,992.3
2018-02-25T00:23:49.108Z,992.2
2018-02-25T00:24:51.656Z,992.2
2018-02-25T00:25:54.106Z,992.3
2018-02-25T00:26:56.533Z,992.2
2018-02-25T00:27:58.953Z,992.2
2018-02-25T00:29:01.600Z,992.2
2018-02-25T00:30:04.072Z,992.2
2018-02-25T00:31:06.614Z,992.2
2018-02-25T00:32:09.096Z,992.3
2018-02-25T00:33:11.555Z,992.3
2018-02-25T00:34:13.986Z,992.2
2018-02-25T00:35:18.062Z,992.2
2018-02-25T00:36:20.558Z,992.2
2018-02-25T00:37:22.970Z,992.2
2018-02-25T00:38:25.411Z,992
2018-02-25T00:39:27.924Z,992.2
2018-02-25T00:40:30.324Z,992.2
2018-02-25T00:41:32.770Z,992.2
2018-02-25T00:42:35.201Z,992.3
2018-02-25T00:43:37.660Z,992.3
2018-02-25T00:44:41.022Z,992.3
2018-02-25T00:45:43.498Z,992.3
2018-02-25T00:46:45.949Z,992.2
2018-02-25T00:47:48.413Z,992.2
2018-02-25T00:48:50.862Z,991.9
2018-02-25T00:49:53.235Z,992.3
2018-02-25T00:50:55.723Z,992.3
2018-02-25T00:51:58.145Z,992.4
2018-02-25T00:53:00.771Z,992.3
2018-02-25T00:54:03.240Z,992.3
2018-02-25T00:55:05.623Z,992.3
2018-02-25T00:56:08.034Z,992.2
2018-02-25T00:57:10.487Z,992.3
2018-02-25T00:58:13.690Z,991.6
2018-02-25T00:59:16.637Z,992.2
2018-02-25T01:00:19.732Z,992.2
2018-02-25T01:01:22.419Z,992.2
2018-02-25T01:02:24.846Z,992.2
2018-02-25T01:03:27.373Z,992.3
2018-02-25T01:04:29.786Z,992.4
2018-02-25T01:05:33.261Z,992.3
2018-02-25T01:06:35.664Z,992.2
2018-02-25T01:07:38.364Z,992.3
2018-02-25T01:08:40.896Z,992
2018-02-25T01:09:43.355Z,992.3
2018-02-25T01:10:45.747Z,992.3
2018-02-25T01:11:48.149Z,992.3
2018-02-25T01:12:50.630Z,992.3
2018-02-25T01:13:53.035Z,992.3
2018-02-25T01:14:55.448Z,992.3
2018-02-25T01:15:58.002Z,992.3
2018-02-25T01:17:00.529Z,992.3
2018-02-25T01:18:02.980Z,992.3
2018-02-25T01:19:05.385Z,992.3
2018-02-25T01:20:07.794Z,992.2
2018-02-25T01:21:10.199Z,992.2
2018-02-25T01:22:12.712Z,992.2
2018-02-25T01:23:15.160Z,992.2
2018-02-25T01:24:17.574Z,992.3
2018-02-25T01:25:19.976Z,992.2
2018-02-25T01:26:22.398Z,992.3
2018-02-25T01:27:24.830Z,992.3
2018-02-25T01:28:27.207Z,992.3
2018-02-25T01:29:29.628Z,992.3
2018-02-25T01:30:32.054Z,992.3
2018-02-25T01:31:34.453Z,992.3
2018-02-25T01:32:36.959Z,992.3
2018-02-25T01:33:39.460Z,992.3
2018-02-25T01:34:41.947Z,991.9
2018-02-25T01:35:44.852Z,992.2
2018-02-25T01:36:47.283Z,992.2
2018-02-25T01:37:50.865Z,991.7
2018-02-25T01:38:53.280Z,992.3
2018-02-25T01:39:55.680Z,992.3
2018-02-25T01:40:58.084Z,992.3
2018-02-25T01:42:00.493Z,992.2
2018-02-25T01:43:02.938Z,992.3
2018-02-25T01:44:05.387Z,992.3
2018-02-25T01:45:11.966Z,992.3
2018-02-25T01:46:14.390Z,992.2
2018-02-25T01:47:16.812Z,992.3
2018-02-25T01:48:19.272Z,992.4
2018-02-25T01:49:22.071Z,992
2018-02-25T01:50:24.496Z,992.2
2018-02-25T01:51:27.757Z,991.9
2018-02-25T01:52:30.139Z,992.3
2018-02-25T01:53:32.567Z,992.4
2018-02-25T01:54:35.021Z,992.2
2018-02-25T01:55:37.526Z,992.2
2018-02-25T01:56:39.966Z,992.2
2018-02-25T01:57:42.445Z,992.1
2018-02-25T01:58:44.849Z,992.2
2018-02-25T01:59:47.225Z,991.9
2018-02-25T02:00:50.402Z,992.3
2018-02-25T02:01:52.785Z,992.2
2018-02-25T02:02:55.201Z,992.3
2018-02-25T02:03:57.686Z,992.2
2018-02-25T02:05:00.118Z,992.2
2018-02-25T02:06:02.529Z,992.2
2018-02-25T02:07:04.981Z,992.3
2018-02-25T02:08:07.471Z,992.2
2018-02-25T02:09:09.891Z,992.2
2018-02-25T02:10:12.348Z,992.2
2018-02-25T02:11:14.773Z,992.1
2018-02-25T02:12:18.366Z,992.2
2018-02-25T02:13:20.783Z,992.2
2018-02-25T02:14:23.304Z,992.2
2018-02-25T02:15:25.685Z,992.1
2018-02-25T02:16:28.387Z,992.3
2018-02-25T02:17:30.805Z,992.3
2018-02-25T02:18:33.263Z,992.1
2018-02-25T02:19:35.671Z,992.2
2018-02-25T02:20:38.048Z,992.1
2018-02-25T02:21:40.460Z,992.2
2018-02-25T02:22:42.944Z,992.2
2018-02-25T02:23:45.386Z,992.2
2018-02-25T02:24:47.798Z,992.1
2018-02-25T02:25:50.279Z,992.2
2018-02-25T02:26:52.728Z,992.1
2018-02-25T02:27:55.201Z,992.1
2018-02-25T02:28:57.642Z,991.9
2018-02-25T02:30:00.128Z,992.2
2018-02-25T02:31:02.633Z,992.2
2018-02-25T02:32:05.062Z,992.2
2018-02-25T02:33:07.511Z,992.3
2018-02-25T02:34:09.914Z,992.4
2018-02-25T02:35:12.644Z,992.2
2018-02-25T02:36:17.056Z,992.3
2018-02-25T02:37:19.519Z,992.2
2018-02-25T02:38:22.011Z,992.3
2018-02-25T02:39:24.445Z,992.3
2018-02-25T02:40:26.930Z,992.3
2018-02-25T02:41:29.393Z,992.3
2018-02-25T02:42:31.848Z,992.4
2018-02-25T02:43:34.296Z,992.2
2018-02-25T02:44:36.775Z,992.2
2018-02-25T02:45:39.244Z,992.2
2018-02-25T02:46:41.702Z,992.2
2018-02-25T02:47:44.103Z,992.2
2018-02-25T02:48:46.564Z,992.2
2018-02-25T02:49:48.963Z,992.3
2018-02-25T02:50:51.748Z,992.3
2018-02-25T02:51:54.128Z,992.2
2018-02-25T02:52:56.589Z,992.2
2018-02-25T02:53:59.051Z,991.9
2018-02-25T02:55:01.507Z,992.3
2018-02-25T02:56:03.938Z,992.3
2018-02-25T02:57:06.335Z,992.3
2018-02-25T02:58:08.763Z,992.3
2018-02-25T02:59:11.227Z,992.2
2018-02-25T03:00:13.634Z,992.2
2018-02-25T03:01:16.098Z,992.1
2018-02-25T03:02:18.466Z,992.3
2018-02-25T03:03:20.861Z,992.4
2018-02-25T03:04:23.346Z,992.3
2018-02-25T03:05:25.745Z,992.3
2018-02-25T03:06:33.097Z,992.4
2018-02-25T03:07:36.195Z,992.1
2018-02-25T03:08:38.626Z,992.3
2018-02-25T03:09:41.087Z,992.4
2018-02-25T03:10:43.505Z,992.3
2018-02-25T03:11:45.935Z,992.2
2018-02-25T03:12:48.318Z,992.3
2018-02-25T03:13:52.596Z,992.2
2018-02-25T03:14:54.987Z,992.3
2018-02-25T03:15:57.396Z,992.4
2018-02-25T03:16:59.817Z,992.2
2018-02-25T03:18:02.263Z,992.3
2018-02-25T03:19:04.960Z,991.9
2018-02-25T03:20:07.408Z,992.2
2018-02-25T03:21:09.860Z,992.2
2018-02-25T03:22:12.355Z,992.4
2018-02-25T03:23:14.839Z,992.2
2018-02-25T03:24:17.247Z,992.2
2018-02-25T03:25:19.723Z,992.3
2018-02-25T03:26:22.227Z,992.3
2018-02-25T03:27:24.665Z,992.4
2018-02-25T03:28:27.058Z,992.2
2018-02-25T03:29:29.521Z,992.4
2018-02-25T03:30:31.932Z,992.5
2018-02-25T03:31:34.354Z,992.3
2018-02-25T03:32:36.728Z,992.3
2018-02-25T03:33:39.106Z,992.4
2018-02-25T03:34:41.561Z,992.4
2018-02-25T03:35:43.976Z,992.4
2018-02-25T03:36:46.357Z,992.4
2018-02-25T03:37:49.077Z,992.3
2018-02-25T03:38:51.487Z,992.3
2018-02-25T03:39:53.907Z,992.3
2018-02-25T03:40:56.341Z,992.4
2018-02-25T03:41:58.747Z,992.3
2018-02-25T03:43:01.190Z,992.4
2018-02-25T03:44:03.588Z,992.4
2018-02-25T03:45:06.115Z,992.6
2018-02-25T03:46:08.529Z,992.5
2018-02-25T03:47:10.945Z,992.3
2018-02-25T03:48:13.487Z,992.4
2018-02-25T03:49:16.265Z,992.4
2018-02-25T03:50:18.691Z,992.3
2018-02-25T03:51:21.249Z,992.4
2018-02-25T03:52:23.766Z,992.4
2018-02-25T03:53:26.239Z,992.5
2018-02-25T03:54:29.669Z,992.6
2018-02-25T03:55:32.131Z,992.6
2018-02-25T03:56:34.535Z,992.4
2018-02-25T03:57:36.922Z,992.4
2018-02-25T03:58:39.334Z,992.5
2018-02-25T03:59:41.747Z,992.5
2018-02-25T04:00:44.173Z,992.5
2018-02-25T04:01:46.528Z,992.5
2018-02-25T04:02:48.893Z,992.6
2018-02-25T04:03:51.336Z,992.6
2018-02-25T04:04:53.745Z,992.5
2018-02-25T04:05:56.166Z,992.6
2018-02-25T04:06:58.572Z,992.4
2018-02-25T04:08:00.985Z,992.4
2018-02-25T04:09:03.372Z,992.6
2018-02-25T04:10:05.731Z,992.5
2018-02-25T04:11:08.127Z,992.5
2018-02-25T04:12:10.564Z,992.6
2018-02-25T04:13:12.969Z,992.7
2018-02-25T04:14:15.386Z,992.4
2018-02-25T04:15:17.817Z,992.7
2018-02-25T04:16:20.214Z,992.5
2018-02-25T04:17:22.634Z,992.6
2018-02-25T04:18:25.057Z,992.7
2018-02-25T04:19:27.445Z,992.8
2018-02-25T04:20:29.892Z,992.8
2018-02-25T04:21:32.279Z,992.5
2018-02-25T04:22:34.704Z,992.7
2018-02-25T04:23:37.151Z,992.8
2018-02-25T04:24:39.784Z,992.6
2018-02-25T04:25:42.210Z,992.5
2018-02-25T04:26:44.628Z,992.2
2018-02-25T04:27:47.098Z,992.5
2018-02-25T04:28:49.581Z,992.5
2018-02-25T04:29:52.062Z,992.7
2018-02-25T04:30:54.471Z,992.8
2018-02-25T04:31:56.852Z,992.6
2018-02-25T04:32:59.286Z,992.6
2018-02-25T04:34:01.736Z,992.7
2018-02-25T04:35:04.168Z,992.7
2018-02-25T04:36:06.572Z,992.6
2018-02-25T04:37:09.002Z,992.6
2018-02-25T04:38:11.450Z,992.9
2018-02-25T04:39:13.843Z,992.7
2018-02-25T04:40:16.460Z,992.9
2018-02-25T04:41:18.934Z,992.7
2018-02-25T04:42:21.348Z,992.8
2018-02-25T04:43:23.756Z,993
2018-02-25T04:44:26.156Z,992.8
2018-02-25T04:45:28.839Z,992.7
2018-02-25T04:46:31.247Z,992.6
2018-02-25T04:47:33.668Z,992.7
2018-02-25T04:48:36.146Z,992.7
2018-02-25T04:49:38.519Z,992.5
2018-02-25T04:50:40.903Z,992.5
2018-02-25T04:51:43.369Z,992.3
2018-02-25T04:52:45.835Z,992.6
2018-02-25T04:53:48.226Z,992.7
2018-02-25T04:54:50.651Z,992.6
2018-02-25T04:55:53.373Z,992.7
2018-02-25T04:56:55.767Z,992.7
2018-02-25T04:57:59.674Z,992.6
2018-02-25T04:59:02.118Z,992.6
2018-02-25T05:00:04.544Z,992.6
2018-02-25T05:01:07.070Z,992.5
2018-02-25T05:02:09.501Z,992.5
2018-02-25T05:03:11.886Z,992.5
2018-02-25T05:04:14.282Z,992.5
2018-02-25T05:05:16.684Z,992.6
2018-02-25T05:06:19.114Z,992.7
2018-02-25T05:07:21.527Z,992.6
2018-02-25T05:08:23.940Z,992.5
2018-02-25T05:09:26.430Z,992.7
2018-02-25T05:10:28.869Z,992.6
2018-02-25T05:11:31.283Z,992.7
2018-02-25T05:12:33.699Z,992.7
2018-02-25T05:13:36.141Z,992.5
2018-02-25T05:14:38.554Z,992.7
2018-02-25T05:15:40.991Z,992.6
2018-02-25T05:16:43.724Z,992.6
2018-02-25T05:17:46.132Z,992.5
2018-02-25T05:18:48.523Z,992.3
2018-02-25T05:19:50.974Z,992.5
2018-02-25T05:20:53.486Z,992.5
2018-02-25T05:21:55.889Z,992.6
2018-02-25T05:22:58.283Z,992.4
2018-02-25T05:24:00.695Z,992.5
2018-02-25T05:25:03.146Z,992.7
2018-02-25T05:26:05.581Z,992.6
2018-02-25T05:27:08.043Z,992.4
2018-02-25T05:28:11.700Z,992.3
2018-02-25T05:29:14.138Z,992.3
2018-02-25T05:30:17.137Z,992.3
2018-02-25T05:31:19.500Z,992.6
2018-02-25T05:32:21.930Z,992.5
2018-02-25T05:33:24.414Z,992.5
2018-02-25T05:34:26.848Z,992.4
2018-02-25T05:35:29.312Z,992.5
2018-02-25T05:36:31.747Z,992.7
2018-02-25T05:37:34.196Z,992.7
2018-02-25T05:39:45.815Z,992.5
2018-02-25T05:40:48.249Z,992.5
2018-02-25T05:41:50.714Z,992.7
2018-02-25T05:42:54.175Z,992.7
2018-02-25T05:43:56.558Z,992.6
2018-02-25T05:44:58.947Z,992.5
2018-02-25T05:46:01.469Z,992.8
2018-02-25T05:47:03.902Z,992.6
2018-02-25T05:48:06.306Z,992.5
2018-02-25T05:49:08.712Z,992.6
2018-02-25T05:50:11.186Z,992.8
2018-02-25T05:51:13.597Z,992.6
2018-02-25T05:52:16.008Z,992.6
2018-02-25T05:53:18.570Z,992.7
2018-02-25T05:54:21.039Z,992.9
2018-02-25T05:55:24.039Z,992.8
2018-02-25T05:56:26.466Z,992.9
2018-02-25T05:57:28.992Z,992.8
2018-02-25T05:58:31.391Z,992.6
2018-02-25T05:59:36.028Z,992.7
2018-02-25T06:00:39.181Z,992.6
2018-02-25T06:01:46.418Z,992.8
2018-02-25T06:02:48.825Z,992.7
2018-02-25T06:03:51.312Z,992.7
2018-02-25T06:04:53.714Z,992.7
2018-02-25T06:05:56.237Z,993
2018-02-25T06:06:58.669Z,992.7
2018-02-25T06:08:01.075Z,993
2018-02-25T06:09:03.478Z,993
2018-02-25T06:10:05.900Z,992.9
2018-02-25T06:11:08.319Z,992.9
2018-02-25T06:12:11.136Z,992.5
2018-02-25T06:13:13.605Z,992.9
2018-02-25T06:14:16.605Z,993.1
2018-02-25T06:15:19.060Z,993.1
2018-02-25T06:16:21.453Z,992.9
2018-02-25T06:17:23.925Z,992.7
2018-02-25T06:18:26.384Z,992.8
2018-02-25T06:19:28.837Z,992.9
2018-02-25T06:20:31.306Z,992.8
2018-02-25T06:21:33.849Z,993.1
2018-02-25T06:22:36.308Z,992.9
2018-02-25T06:23:38.934Z,992.8
2018-02-25T06:24:41.380Z,993
2018-02-25T06:25:45.366Z,993
2018-02-25T06:58:31.639Z,993.2
2018-02-25T06:59:34.139Z,993.1
2018-02-25T07:00:36.587Z,993.2
2018-02-25T07:01:39.872Z,993.1
2018-02-25T07:02:42.313Z,993.1
2018-02-25T07:03:45.996Z,993.2
2018-02-25T07:04:48.431Z,992.7
2018-02-25T07:05:50.853Z,993.2
2018-02-25T07:06:53.317Z,993.1
2018-02-25T07:07:55.716Z,993.1
2018-02-25T07:08:58.127Z,993
2018-02-25T07:10:06.145Z,993.1
2018-02-25T07:11:08.583Z,993.1
2018-02-25T07:12:10.992Z,993.1
2018-02-25T07:13:13.519Z,993
2018-02-25T07:14:16.274Z,993.1
2018-02-25T07:15:18.647Z,993.1
2018-02-25T07:16:21.077Z,992.8
2018-02-25T07:17:23.526Z,993
2018-02-25T07:18:25.965Z,992.8
2018-02-25T07:19:37.811Z,992.8
2018-02-25T07:20:41.203Z,992.9
2018-02-25T07:21:43.660Z,993.1
2018-02-25T07:22:46.078Z,993.1
2018-02-25T07:25:03.190Z,993
2018-02-25T07:26:05.836Z,993.1
2018-02-25T07:27:08.276Z,993.2
2018-02-25T07:28:23.013Z,993.1
2018-02-25T07:29:25.479Z,993
2018-02-25T07:30:27.949Z,992.7
2018-02-25T07:31:30.404Z,992.9
2018-02-25T07:32:32.863Z,993
2018-02-25T07:33:35.321Z,993
2018-02-25T07:34:37.730Z,992.9
2018-02-25T07:35:40.184Z,993
2018-02-25T07:36:42.633Z,992.9
2018-02-25T07:37:45.114Z,992.9
2018-02-25T07:38:47.568Z,993
2018-02-25T07:39:49.980Z,993.1
2018-02-25T07:40:52.431Z,993.1
2018-02-25T07:41:55.035Z,993
2018-02-25T07:42:57.484Z,992.9
2018-02-25T07:44:00.150Z,992.8
2018-02-25T07:45:02.738Z,992.8
2018-02-25T07:46:05.349Z,992.7
2018-02-25T07:47:07.824Z,992.7
2018-02-25T07:48:10.252Z,992.8
2018-02-25T07:49:12.725Z,992.7
2018-02-25T07:50:17.145Z,992.7
2018-02-25T07:51:19.626Z,992.7
2018-02-25T07:52:22.072Z,992.5
2018-02-25T07:53:24.574Z,992.5
2018-02-25T07:54:27.046Z,992.8
2018-02-25T07:55:29.474Z,992.8
2018-02-25T07:56:31.928Z,992.8
2018-02-25T07:57:34.448Z,992.8
2018-02-25T07:58:36.948Z,992.8
2018-02-25T07:59:39.394Z,992.7
2018-02-25T08:00:41.823Z,992.8
2018-02-25T08:01:44.380Z,992.7
2018-02-25T08:02:46.844Z,992.8
2018-02-25T08:03:49.327Z,992.5
2018-02-25T08:04:51.762Z,992.8
2018-02-25T08:05:54.599Z,992.7
2018-02-25T08:06:57.061Z,992.8
2018-02-25T08:07:59.599Z,992.8
2018-02-25T08:09:02.033Z,992.7
2018-02-25T08:10:04.628Z,992.8
2018-02-25T08:11:07.093Z,992.7
2018-02-25T08:12:09.578Z,992.7
2018-02-25T08:13:12.050Z,992.7
2018-02-25T08:14:14.502Z,992.8
2018-02-25T08:15:17.005Z,992.8
2018-02-25T08:16:20.196Z,992.6
2018-02-25T08:17:22.779Z,992.8
2018-02-25T08:18:25.233Z,992.8
2018-02-25T08:19:27.686Z,992.9
2018-02-25T08:20:30.142Z,992.8
2018-02-25T08:21:32.633Z,992.8
2018-02-25T08:22:35.226Z,992.9
2018-02-25T08:23:37.821Z,992.9
2018-02-25T08:24:40.385Z,992.9
2018-02-25T08:25:43.281Z,992.8
2018-02-25T08:26:49.170Z,992.7
2018-02-25T08:27:51.792Z,992.9
2018-02-25T08:28:54.994Z,992.9
2018-02-25T08:29:57.437Z,992.9
2018-02-25T08:31:00.114Z,993
2018-02-25T08:32:02.931Z,993
2018-02-25T08:33:05.815Z,992.9
2018-02-25T08:34:08.611Z,992.9
2018-02-25T08:35:11.292Z,993
2018-02-25T08:36:13.963Z,993
2018-02-25T08:37:16.491Z,992.9
2018-02-25T08:38:26.761Z,993
2018-02-25T08:39:29.389Z,992.9
2018-02-25T08:40:31.936Z,993
2018-02-25T08:41:34.419Z,993
2018-02-25T08:42:39.801Z,993
2018-02-25T08:43:42.523Z,992.9
2018-02-25T08:44:45.254Z,992.9
2018-02-25T08:45:47.861Z,992.9
2018-02-25T08:46:50.481Z,992.9
2018-02-25T08:47:53.043Z,992.9
2018-02-25T08:48:55.977Z,992.9
2018-02-25T08:49:58.584Z,993
2018-02-25T08:51:01.508Z,993
2018-02-25T08:52:04.121Z,992.8
2018-02-25T08:53:06.963Z,993
2018-02-25T08:54:09.723Z,992.9
2018-02-25T08:55:12.355Z,992.9
2018-02-25T08:56:15.892Z,992.9
2018-02-25T08:57:18.660Z,992.9
2018-02-25T08:58:21.226Z,992.9
